Time;durP1;ratioP1;P1;durP2;ratioP2;P2;SDS_P1;SDS_P2;PMS_P1;PMS_P2;Temp;Humidity;BMP_temperature;BMP_pressure;BME280_temperature;BME280_humidity;BME280_pressure;Samples;Min_cycle;Max_cycle;Signal;HPM_P1;HPM_P2
2022/04/30 00:01:15;;;;;;;;;18.50;17.50;;;;;14.17;34.77;102140.91;4960653;28;45503;-56
2022/04/30 00:03:41;;;;;;;;;15.75;14.25;;;;;14.13;35.26;102139.16;4960801;28;45415;-56
2022/04/30 00:06:06;;;;;;;;;24.50;20.00;;;;;14.09;35.21;102142.72;4959282;28;45566;-56
2022/04/30 00:08:32;;;;;;;;;22.50;20.75;;;;;14.05;35.35;102138.31;4973642;28;46007;-56
2022/04/30 00:10:57;;;;;;;;;18.00;14.75;;;;;13.98;35.46;102138.38;4960247;28;45378;-56
2022/04/30 00:13:23;;;;;;;;;17.25;16.25;;;;;13.93;35.09;102132.22;4959393;28;45355;-57
2022/04/30 00:15:48;;;;;;;;;20.25;19.50;;;;;13.91;35.61;102127.84;4960510;28;45536;-56
2022/04/30 00:18:13;;;;;;;;;15.50;14.75;;;;;13.87;35.60;102129.63;4960398;28;45424;-56
2022/04/30 00:20:45;;;;;;;;;24.25;21.25;;;;;13.84;35.59;102132.28;4960536;28;45562;-56
2022/04/30 00:23:19;;;;;;;;;14.00;13.00;;;;;13.80;35.38;102130.56;4960536;28;45305;-56
2022/04/30 00:25:46;;;;;;;;;22.00;18.00;;;;;13.75;34.94;102130.59;4959893;28;45259;-56
2022/04/30 00:28:11;;;;;;;;;23.00;21.00;;;;;13.71;35.60;102126.22;4960208;28;45453;-56
2022/04/30 00:30:37;;;;;;;;;19.50;17.25;;;;;13.69;35.74;102127.09;4960267;28;45404;-56
2022/04/30 00:33:09;;;;;;;;;23.00;19.50;;;;;13.65;35.71;102123.59;4958888;28;45386;-57
2022/04/30 00:35:34;;;;;;;;;31.00;25.50;;;;;13.59;36.02;102126.25;4960336;28;45398;-60
2022/04/30 00:37:59;;;;;;;;;23.50;20.25;;;;;13.58;35.68;102130.66;4967970;28;45435;-57
2022/04/30 00:40:24;;;;;;;;;26.00;24.75;;;;;13.47;35.91;102121.91;4961841;28;45357;-56
2022/04/30 00:42:50;;;;;;;;;26.75;22.00;;;;;13.49;35.74;102139.50;4963842;28;45324;-56
2022/04/30 00:45:15;;;;;;;;;24.00;21.00;;;;;13.47;36.17;102148.31;4963371;28;45367;-57
2022/04/30 00:47:40;;;;;;;;;26.75;21.00;;;;;13.43;35.95;102141.28;4963564;28;45814;-57
2022/04/30 00:50:06;;;;;;;;;20.50;20.00;;;;;13.37;36.12;102130.72;4963346;28;45320;-56
2022/04/30 00:52:33;;;;;;;;;19.75;17.75;;;;;13.36;36.11;102140.41;4963555;28;45361;-56
2022/04/30 00:55:02;;;;;;;;;23.75;20.00;;;;;13.34;36.14;102142.16;4963000;28;45333;-56
2022/04/30 00:57:31;;;;;;;;;24.00;22.00;;;;;13.30;36.19;102136.00;4963335;28;47201;-56
2022/04/30 00:59:59;;;;;;;;;23.25;21.25;;;;;13.27;36.40;102143.97;4963122;28;45275;-56
2022/04/30 01:02:28;;;;;;;;;24.25;22.75;;;;;13.25;36.52;102142.22;4963229;28;45457;-56
2022/04/30 01:04:54;;;;;;;;;23.00;20.25;;;;;13.20;36.61;102133.44;4961741;28;45564;-57
2022/04/30 01:07:20;;;;;;;;;27.00;22.75;;;;;13.14;36.62;102131.66;4962689;28;47154;-56
2022/04/30 01:09:47;;;;;;;;;27.25;24.50;;;;;13.12;36.62;102133.47;4974334;28;45818;-57
2022/04/30 01:12:14;;;;;;;;;27.50;23.50;;;;;13.10;36.60;102135.22;4963269;28;45499;-57
2022/04/30 01:14:41;;;;;;;;;21.50;21.25;;;;;13.06;36.77;102130.84;4962968;28;45395;-56
2022/04/30 01:17:08;;;;;;;;;25.75;22.75;;;;;13.01;36.88;102120.28;4963026;28;45286;-56
2022/04/30 01:19:37;;;;;;;;;23.00;19.75;;;;;12.95;37.16;102129.06;4962835;28;45487;-56
2022/04/30 01:22:26;;;;;;;;;23.00;22.25;;;;;12.91;36.84;102127.31;4962947;28;45326;-56
2022/04/30 01:24:58;;;;;;;;;22.00;18.75;;;;;12.85;37.14;102116.78;4962461;28;45378;-56
2022/04/30 01:27:26;;;;;;;;;19.50;18.00;;;;;12.84;37.37;102120.28;4962718;28;46079;-56
2022/04/30 01:29:53;;;;;;;;;24.00;21.75;;;;;12.78;37.19;102107.09;4961509;28;45281;-57
2022/04/30 01:37:57;;;;;;;;;24.00;21.00;;;;;12.70;37.38;102127.38;4967643;28;45245;-55
2022/04/30 01:40:23;;;;;;;;;25.25;23.00;;;;;12.67;37.51;102112.41;4962133;28;45655;-57
2022/04/30 01:42:48;;;;;;;;;23.75;23.00;;;;;12.63;37.56;102114.19;4963035;28;45294;-56
2022/04/30 01:45:18;;;;;;;;;21.00;20.50;;;;;12.62;37.71;102115.06;4962594;28;45311;-55
2022/04/30 01:47:45;;;;;;;;;24.75;23.00;;;;;12.59;37.65;102109.78;4962318;28;45381;-55
2022/04/30 01:50:12;;;;;;;;;25.75;22.00;;;;;12.57;37.72;102110.69;4962307;28;45409;-56
2022/04/30 01:52:37;;;;;;;;;20.75;19.75;;;;;12.54;37.74;102110.66;4962523;28;45513;-55
2022/04/30 01:55:03;;;;;;;;;22.50;22.00;;;;;12.51;37.81;102116.81;4962066;28;45453;-56
2022/04/30 01:57:29;;;;;;;;;29.00;23.75;;;;;12.48;37.91;102116.84;4961229;28;46295;-56
2022/04/30 01:59:59;;;;;;;;;25.75;25.25;;;;;12.44;37.88;102108.03;4962142;28;45224;-56
2022/04/30 02:02:34;;;;;;;;;25.75;22.25;;;;;12.38;37.97;102104.50;4962552;28;45322;-56
2022/04/30 02:05:03;;;;;;;;;22.25;20.50;;;;;12.38;38.06;102112.41;4962115;28;45373;-56
2022/04/30 02:07:30;;;;;;;;;20.75;19.00;;;;;12.34;38.14;102109.78;4970655;28;46332;-56
2022/04/30 02:09:59;;;;;;;;;24.25;22.50;;;;;12.32;38.23;102108.03;4966210;28;45422;-56
2022/04/30 02:12:27;;;;;;;;;23.25;21.75;;;;;12.30;38.32;102108.03;4962316;28;45326;-56
2022/04/30 02:14:55;;;;;;;;;22.75;22.75;;;;;12.27;38.36;102101.88;4962027;28;45351;-57
2022/04/30 02:17:22;;;;;;;;;22.50;19.25;;;;;12.23;38.39;102093.09;4962229;28;45267;-56
2022/04/30 02:22:38;;;;;;;;;22.50;20.00;;;;;12.17;38.55;102099.22;4962111;28;45301;-55
2022/04/30 02:25:08;;;;;;;;;26.50;22.75;;;;;12.16;38.40;102099.22;4961649;28;45395;-56
2022/04/30 02:27:34;;;;;;;;;20.00;18.25;;;;;12.11;38.62;102101.88;4961711;28;46064;-55
2022/04/30 02:30:00;;;;;;;;;23.75;22.00;;;;;12.08;38.50;102095.72;4960672;28;45858;-55
2022/04/30 02:32:25;;;;;;;;;25.00;21.00;;;;;12.08;38.66;102103.63;4961508;28;45374;-57
2022/04/30 02:34:50;;;;;;;;;24.25;22.75;;;;;12.05;38.88;102096.59;4962027;28;45477;-57
2022/04/30 02:37:16;;;;;;;;;25.25;22.25;;;;;12.03;38.89;102093.94;4966233;28;45404;-57
2022/04/30 02:39:47;;;;;;;;;24.25;20.75;;;;;12.01;38.88;102098.34;4960280;28;45778;-57
2022/04/30 02:42:13;;;;;;;;;17.25;17.25;;;;;11.98;39.06;102095.69;4961856;28;45378;-57
2022/04/30 02:44:39;;;;;;;;;22.00;20.00;;;;;11.98;39.05;102097.47;4961889;28;45559;-57
2022/04/30 02:47:08;;;;;;;;;21.00;19.25;;;;;11.96;38.98;102097.47;4961424;28;46513;-57
2022/04/30 02:49:33;;;;;;;;;22.00;19.75;;;;;11.95;38.94;102102.69;4961799;28;45410;-57
2022/04/30 02:51:59;;;;;;;;;24.00;22.75;;;;;11.92;39.33;102094.78;4960300;28;45498;-57
2022/04/30 02:54:24;;;;;;;;;18.75;16.00;;;;;11.91;39.15;102098.28;4961591;28;45184;-57
2022/04/30 02:56:49;;;;;;;;;22.75;20.50;;;;;11.89;39.09;102100.06;4961172;28;46285;-57
2022/04/30 03:02:19;;;;;;;;;22.00;18.75;;;;;11.83;39.38;102101.78;4959455;28;45284;-57
2022/04/30 03:04:44;;;;;;;;;23.75;20.75;;;;;11.80;39.36;102098.28;4959192;28;45227;-57
2022/04/30 03:07:12;;;;;;;;;21.75;20.50;;;;;11.81;39.49;102103.56;4966244;28;45218;-57
2022/04/30 03:09:41;;;;;;;;;18.25;16.00;;;;;11.79;39.50;102091.25;4967970;28;45386;-57
2022/04/30 03:12:08;;;;;;;;;24.25;21.75;;;;;11.77;39.59;102085.97;4961153;28;45258;-57
2022/04/30 03:14:37;;;;;;;;;20.25;20.00;;;;;11.68;39.48;102076.31;4959944;28;45407;-57
2022/04/30 03:22:31;;;;;;;;;22.75;17.25;;;;;11.73;39.80;102088.59;4961262;28;45445;-56
2022/04/30 03:24:57;;;;;;;;;23.75;20.75;;;;;11.71;39.65;102089.47;4960627;28;45362;-58
2022/04/30 03:27:22;;;;;;;;;24.75;21.50;;;;;11.72;39.72;102090.34;4961033;28;46265;-58
2022/04/30 03:29:48;;;;;;;;;21.25;19.50;;;;;11.69;39.88;102083.31;4959819;28;45398;-56
2022/04/30 03:32:13;;;;;;;;;22.25;19.75;;;;;11.68;39.98;102092.13;4961090;28;45373;-56
2022/04/30 03:34:39;;;;;;;;;24.50;19.75;;;;;11.68;39.94;102085.94;4961057;28;45607;-56
2022/04/30 03:37:05;;;;;;;;;20.25;20.25;;;;;11.62;39.85;102084.19;4965358;28;46610;-57
2022/04/30 03:39:30;;;;;;;;;19.00;18.75;;;;;11.63;40.10;102078.03;4960814;28;45825;-57
2022/04/30 03:41:56;;;;;;;;;19.75;18.50;;;;;11.64;39.91;102086.81;4960912;28;45444;-56
2022/04/30 03:44:21;;;;;;;;;21.75;20.50;;;;;11.60;40.04;102083.31;4960777;28;45203;-57
2022/04/30 03:46:47;;;;;;;;;22.75;18.75;;;;;11.59;39.96;102078.91;4960633;28;46327;-57
2022/04/30 03:49:12;;;;;;;;;26.00;21.25;;;;;11.58;40.13;102087.66;4960904;28;45196;-57
2022/04/30 03:51:38;;;;;;;;;25.00;20.50;;;;;11.55;40.27;102083.28;4959568;28;45355;-57
2022/04/30 03:54:03;;;;;;;;;14.75;13.75;;;;;11.53;40.01;102076.25;4959404;28;45605;-56
2022/04/30 03:56:29;;;;;;;;;25.75;21.00;;;;;11.49;40.15;102074.50;4959047;28;47940;-57
2022/04/30 03:58:54;;;;;;;;;20.50;19.75;;;;;11.50;40.40;102079.75;4960846;28;45188;-57
2022/04/30 04:01:21;;;;;;;;;26.00;19.50;;;;;11.49;40.51;102082.38;4960769;28;45603;-57
2022/04/30 04:03:48;;;;;;;;;19.50;16.75;;;;;11.48;40.51;102078.88;4960779;28;45398;-57
2022/04/30 04:06:15;;;;;;;;;18.25;17.50;;;;;11.47;40.40;102089.38;4960370;28;47075;-57
2022/04/30 04:08:40;;;;;;;;;24.50;22.00;;;;;11.48;40.60;102078.00;4973554;28;45269;-57
2022/04/30 04:11:10;;;;;;;;;22.00;21.75;;;;;11.46;40.61;102075.38;4960222;28;45440;-56
2022/04/30 04:19:05;;;;;;;;;26.25;23.50;;;;;11.50;40.57;102084.16;4964112;28;45345;-57
2022/04/30 04:21:30;;;;;;;;;23.00;23.00;;;;;11.50;40.79;102086.78;4962552;28;45450;-56
2022/04/30 04:26:50;;;;;;;;;23.00;20.75;;;;;11.54;41.06;102084.13;4961441;28;46004;-58
2022/04/30 04:29:16;;;;;;;;;25.75;23.25;;;;;11.54;40.96;102084.13;4962462;28;45378;-59
2022/04/30 04:31:44;;;;;;;;;27.00;22.75;;;;;11.53;40.98;102082.41;4963761;28;45227;-57
2022/04/30 04:34:10;;;;;;;;;29.75;24.75;;;;;11.57;40.88;102080.63;4963517;28;45590;-57
2022/04/30 04:36:36;;;;;;;;;25.75;25.25;;;;;11.58;40.91;102084.16;4963094;28;47144;-57
2022/04/30 04:39:03;;;;;;;;;22.25;20.50;;;;;11.57;41.06;102088.53;4963407;28;45261;-57
2022/04/30 04:41:28;;;;;;;;;23.50;21.00;;;;;11.60;41.27;102087.69;4963449;28;45192;-57
2022/04/30 04:43:53;;;;;;;;;23.00;20.00;;;;;11.60;40.95;102090.34;4962051;28;45309;-57
2022/04/30 04:46:19;;;;;;;;;19.50;19.50;;;;;11.61;41.07;102092.97;4963508;28;45358;-58
2022/04/30 04:48:44;;;;;;;;;23.00;20.50;;;;;11.60;41.17;102093.81;4963486;28;45252;-58
2022/04/30 04:51:11;;;;;;;;;22.00;17.75;;;;;11.63;41.14;102099.09;4963617;28;45264;-57
2022/04/30 04:53:36;;;;;;;;;25.50;23.00;;;;;11.63;41.10;102114.88;4963374;28;45239;-58
2022/04/30 04:56:03;;;;;;;;;23.75;21.50;;;;;11.63;41.29;102109.63;4962968;28;45422;-57
2022/04/30 04:58:29;;;;;;;;;21.50;21.00;;;;;11.65;41.13;102104.38;4963157;28;45334;-57
2022/04/30 05:00:54;;;;;;;;;26.00;20.75;;;;;11.67;41.15;102108.78;4963366;28;45753;-57
2022/04/30 05:03:19;;;;;;;;;27.50;23.50;;;;;11.67;41.21;102107.88;4963287;28;45322;-57
2022/04/30 05:05:45;;;;;;;;;22.25;22.00;;;;;11.69;41.32;102116.69;4961744;28;47362;-57
2022/04/30 05:08:10;;;;;;;;;19.50;16.25;;;;;11.68;41.35;102102.66;4976121;28;45333;-57
2022/04/30 05:10:36;;;;;;;;;21.75;20.00;;;;;11.68;41.29;102113.19;4962966;28;45433;-57
2022/04/30 05:13:02;;;;;;;;;21.00;21.00;;;;;11.67;41.16;102106.16;4962947;28;46422;-57
2022/04/30 05:15:27;;;;;;;;;25.50;23.00;;;;;11.71;41.27;102110.53;4963038;28;46125;-57
2022/04/30 05:17:53;;;;;;;;;21.50;19.75;;;;;11.70;41.48;102111.41;4962881;28;45149;-56
2022/04/30 05:20:18;;;;;;;;;21.75;18.75;;;;;11.73;41.37;102120.19;4963374;28;45247;-57
2022/04/30 05:22:44;;;;;;;;;21.75;20.75;;;;;11.75;41.55;102121.97;4962335;28;45488;-57
2022/04/30 05:25:09;;;;;;;;;27.75;24.25;;;;;11.77;41.61;102121.97;4962718;28;46151;-57
2022/04/30 05:27:34;;;;;;;;;24.00;23.00;;;;;11.77;41.54;102121.97;4962678;28;45250;-57
2022/04/30 05:30:00;;;;;;;;;17.50;17.50;;;;;11.79;41.68;102120.22;4961796;28;45272;-58
2022/04/30 05:32:25;;;;;;;;;24.50;22.00;;;;;11.79;41.57;102123.72;4961174;28;45659;-57
2022/04/30 05:34:50;;;;;;;;;19.50;18.25;;;;;11.80;41.44;102127.25;4962670;28;45268;-57
2022/04/30 05:37:16;;;;;;;;;27.75;24.25;;;;;11.78;41.52;102129.00;4967262;28;45259;-57
2022/04/30 05:39:41;;;;;;;;;31.25;22.50;;;;;11.79;41.93;102130.75;4962719;28;45426;-56
2022/04/30 05:42:07;;;;;;;;;24.50;23.50;;;;;11.80;41.42;102133.38;4962633;28;45404;-56
2022/04/30 05:44:32;;;;;;;;;25.00;20.50;;;;;11.80;41.63;102140.44;4962599;28;46228;-55
2022/04/30 05:46:57;;;;;;;;;28.00;25.25;;;;;11.70;41.57;102129.84;4962437;28;45615;-56
2022/04/30 05:49:22;;;;;;;;;27.25;24.75;;;;;11.79;41.66;102147.44;4962908;28;45495;-54
2022/04/30 05:51:49;;;;;;;;;23.50;20.50;;;;;11.79;41.60;102136.91;4962457;28;45444;-56
2022/04/30 05:54:15;;;;;;;;;23.25;22.75;;;;;11.77;41.64;102143.91;4962432;28;46180;-56
2022/04/30 05:56:40;;;;;;;;;27.00;24.50;;;;;11.78;41.73;102142.16;4962057;28;45316;-55
2022/04/30 05:59:05;;;;;;;;;25.75;23.00;;;;;11.76;42.20;102141.28;4962482;28;45252;-56
2022/04/30 06:01:31;;;;;;;;;33.00;25.50;;;;;11.82;41.86;102143.91;4962191;28;45568;-56
2022/04/30 06:03:56;;;;;;;;;28.75;27.00;;;;;11.85;41.82;102146.59;4962513;28;45318;-56
2022/04/30 06:06:21;;;;;;;;;23.50;21.50;;;;;11.89;42.01;102150.97;4962104;28;45332;-56
2022/04/30 06:08:47;;;;;;;;;22.75;22.50;;;;;11.92;41.97;102148.34;4975618;28;45475;-57
2022/04/30 06:11:13;;;;;;;;;26.50;25.75;;;;;11.98;41.95;102151.03;4960508;28;45519;-57
2022/04/30 06:13:38;;;;;;;;;24.25;22.75;;;;;12.03;41.81;102154.53;4962038;28;46443;-57
2022/04/30 06:16:04;;;;;;;;;24.75;23.00;;;;;12.09;41.97;102158.97;4962159;28;45442;-57
2022/04/30 06:18:29;;;;;;;;;28.25;27.50;;;;;12.14;42.24;102157.22;4962181;28;45259;-57
2022/04/30 06:20:55;;;;;;;;;26.25;25.25;;;;;12.19;42.05;102163.38;4962024;28;45504;-57
2022/04/30 06:23:20;;;;;;;;;28.25;24.25;;;;;12.24;41.87;102160.75;4961844;28;45235;-57
2022/04/30 06:25:46;;;;;;;;;27.75;26.75;;;;;12.27;41.89;102155.47;4960333;28;45399;-58
2022/04/30 06:28:12;;;;;;;;;32.00;29.25;;;;;12.31;42.11;102162.53;4961890;28;45235;-57
2022/04/30 06:30:39;;;;;;;;;26.25;26.25;;;;;12.32;42.14;102163.38;4961904;28;45488;-57
2022/04/30 06:33:05;;;;;;;;;24.75;23.00;;;;;12.37;41.97;102166.03;4961664;28;46233;-57
2022/04/30 06:35:31;;;;;;;;;28.75;25.25;;;;;12.39;41.82;102159.00;4960766;28;45441;-57
2022/04/30 06:37:56;;;;;;;;;29.50;24.75;;;;;12.41;42.19;102170.44;4966577;28;45318;-57
2022/04/30 06:40:22;;;;;;;;;30.00;27.50;;;;;12.43;42.10;102173.97;4961469;28;45306;-57
2022/04/30 06:42:47;;;;;;;;;28.00;27.50;;;;;12.44;42.06;102170.41;4961771;28;47063;-57
2022/04/30 06:45:13;;;;;;;;;26.50;24.25;;;;;12.45;42.04;102170.44;4961550;28;45278;-57
2022/04/30 06:47:39;;;;;;;;;29.00;28.00;;;;;12.47;41.97;102170.44;4961904;28;45254;-57
2022/04/30 06:50:06;;;;;;;;;25.50;23.75;;;;;12.47;41.79;102173.94;4960219;28;45512;-57
2022/04/30 06:52:32;;;;;;;;;24.25;21.00;;;;;12.50;41.97;102173.06;4961661;28;46282;-57
2022/04/30 06:57:43;;;;;;;;;29.50;24.00;;;;;12.53;42.06;102181.00;4961790;28;45420;-57
2022/04/30 07:02:55;;;;;;;;;22.75;18.75;;;;;12.55;41.89;102173.06;4961309;28;45402;-56
2022/04/30 07:05:21;;;;;;;;;28.75;25.50;;;;;12.57;42.00;102180.09;4961341;28;45282;-58
2022/04/30 07:07:47;;;;;;;;;18.50;17.25;;;;;12.59;42.15;102180.09;4960981;28;45327;-52
2022/04/30 07:10:12;;;;;;;;;26.00;26.00;;;;;12.62;41.89;102177.47;4960862;28;45169;-48
2022/04/30 07:12:37;;;;;;;;;28.50;26.75;;;;;12.65;42.06;102180.09;4961269;28;46033;-53
2022/04/30 07:15:03;;;;;;;;;27.25;25.50;;;;;12.68;42.09;102185.41;4961139;28;45240;-53
2022/04/30 07:17:29;;;;;;;;;21.25;21.25;;;;;12.71;41.99;102184.50;4961275;28;45275;-52
2022/04/30 07:19:54;;;;;;;;;21.50;18.50;;;;;12.76;42.03;102190.66;4961045;28;45321;-51
2022/04/30 07:22:19;;;;;;;;;26.00;24.00;;;;;12.77;41.92;102190.66;4961085;28;45358;-52
2022/04/30 07:24:45;;;;;;;;;24.75;21.50;;;;;12.84;41.99;102194.16;4960730;28;45299;-54
2022/04/30 07:27:10;;;;;;;;;22.75;22.00;;;;;12.86;41.97;102191.53;4961078;28;45284;-51
2022/04/30 07:29:38;;;;;;;;;24.25;21.00;;;;;12.95;41.91;102200.31;4959651;28;45850;-50
2022/04/30 07:32:07;;;;;;;;;23.75;21.75;;;;;13.00;42.04;102188.00;4960802;28;46158;-49
2022/04/30 07:34:33;;;;;;;;;23.25;21.25;;;;;13.07;42.08;102186.25;4960794;28;45258;-52
2022/04/30 07:36:58;;;;;;;;;24.75;22.75;;;;;13.14;42.30;102195.00;4964715;28;45317;-49
2022/04/30 07:39:24;;;;;;;;;17.50;17.00;;;;;13.19;41.96;102203.81;4960895;28;45705;-53
2022/04/30 07:41:49;;;;;;;;;27.50;23.75;;;;;13.25;41.79;102200.28;4959655;28;45252;-51
2022/04/30 07:44:15;;;;;;;;;26.25;24.00;;;;;13.28;41.76;102203.81;4960698;28;45180;-52
2022/04/30 07:46:40;;;;;;;;;19.25;18.25;;;;;13.32;41.83;102202.03;4960861;28;45224;-50
2022/04/30 07:49:06;;;;;;;;;24.00;21.50;;;;;13.34;41.63;102197.63;4960673;28;45544;-53
2022/04/30 07:51:38;;;;;;;;;20.25;19.00;;;;;13.37;41.74;102195.00;4960608;28;47022;-51
2022/04/30 07:54:04;;;;;;;;;26.25;22.50;;;;;13.41;41.75;102191.47;4960578;28;45345;-52
2022/04/30 07:56:30;;;;;;;;;21.75;21.75;;;;;13.47;41.80;102209.03;4960520;28;45322;-53
2022/04/30 07:58:55;;;;;;;;;23.50;21.25;;;;;13.51;41.69;102199.34;4960673;28;45492;-52
2022/04/30 08:01:21;;;;;;;;;26.75;20.75;;;;;13.58;41.93;102194.03;4960629;28;45586;-53
2022/04/30 08:03:46;;;;;;;;;22.00;19.75;;;;;13.62;41.40;102197.56;4959530;28;45235;-54
2022/04/30 08:06:12;;;;;;;;;19.00;17.75;;;;;13.69;41.70;102204.56;4960821;28;46839;-51
2022/04/30 08:08:38;;;;;;;;;22.75;21.00;;;;;13.74;41.45;102194.00;4973608;28;45419;-52
2022/04/30 08:11:04;;;;;;;;;23.75;21.00;;;;;13.80;41.53;102194.84;4960106;28;47248;-52
2022/04/30 08:13:29;;;;;;;;;21.00;21.00;;;;;13.87;41.68;102189.53;4960285;28;45413;-53
2022/04/30 08:15:55;;;;;;;;;20.75;20.75;;;;;13.98;41.68;102187.72;4960749;28;45227;-53
2022/04/30 08:18:20;;;;;;;;;20.75;17.00;;;;;14.05;41.37;102199.13;4960385;28;45263;-50
2022/04/30 08:20:46;;;;;;;;;21.50;21.00;;;;;14.14;41.50;102197.31;4960227;28;46254;-50
2022/04/30 08:23:12;;;;;;;;;23.00;19.50;;;;;14.23;41.60;102195.50;4960515;28;45345;-52
2022/04/30 08:25:38;;;;;;;;;21.25;18.50;;;;;14.32;41.69;102186.63;4960192;28;45273;-53
2022/04/30 08:28:04;;;;;;;;;17.50;17.50;;;;;14.42;41.33;102196.25;4958915;28;45585;-49
2022/04/30 08:30:30;;;;;;;;;17.00;17.00;;;;;14.47;41.23;102191.81;4960121;28;47091;-52
2022/04/30 08:32:56;;;;;;;;;17.00;16.75;;;;;14.58;41.21;102194.38;4960062;28;45359;-52
2022/04/30 08:35:21;;;;;;;;;20.25;17.75;;;;;14.61;41.46;102189.91;4960516;28;45216;-53
2022/04/30 08:37:46;;;;;;;;;19.25;18.50;;;;;14.72;41.43;102199.59;4964773;28;45542;-49
2022/04/30 08:40:12;;;;;;;;;19.75;17.50;;;;;14.78;40.88;102195.13;4959812;28;45424;-53
2022/04/30 08:42:38;;;;;;;;;18.75;18.00;;;;;14.86;41.12;102196.84;4960198;28;45401;-53
2022/04/30 08:45:06;;;;;;;;;18.50;18.25;;;;;14.90;41.02;102195.91;4960248;28;45342;-51
2022/04/30 08:47:37;;;;;;;;;13.50;13.50;;;;;15.01;40.87;102195.81;4960030;28;45480;-52
2022/04/30 08:50:03;;;;;;;;;18.00;13.25;;;;;15.09;41.16;102199.25;4959958;28;46310;-51
2022/04/30 08:52:29;;;;;;;;;18.75;17.50;;;;;15.17;40.85;102191.22;4959991;28;45648;-51
2022/04/30 08:54:54;;;;;;;;;18.00;16.50;;;;;15.24;41.14;102191.16;4959623;28;45423;-55
2022/04/30 08:57:20;;;;;;;;;24.25;18.25;;;;;15.32;40.56;102179.59;4959941;28;45481;-49
2022/04/30 08:59:46;;;;;;;;;19.50;19.50;;;;;15.39;40.75;102183.94;4963112;28;45932;-50
2022/04/30 09:02:12;;;;;;;;;15.00;12.50;;;;;15.44;40.53;102184.75;4963210;28;45293;-52
2022/04/30 09:04:43;;;;;;;;;17.75;16.25;;;;;15.51;40.99;102181.16;4961792;28;45253;-53
2022/04/30 09:07:16;;;;;;;;;21.75;16.00;;;;;15.57;40.35;102178.41;4967599;28;45455;-53
2022/04/30 09:09:41;;;;;;;;;17.00;15.25;;;;;15.66;40.52;102171.25;4980765;28;47258;-54
2022/04/30 09:12:08;;;;;;;;;19.75;17.50;;;;;15.72;40.68;102172.06;4962981;28;45354;-51
2022/04/30 09:14:34;;;;;;;;;16.50;15.25;;;;;15.82;40.74;102183.41;4962845;28;45374;-51
2022/04/30 09:17:08;;;;;;;;;20.25;19.25;;;;;15.90;40.59;102178.91;4962964;28;45255;-53
2022/04/30 09:19:48;;;;;;;;;11.25;11.25;;;;;15.96;40.13;102167.34;4962661;28;46271;-53
2022/04/30 09:22:15;;;;;;;;;16.75;15.25;;;;;16.05;39.72;102168.97;4962730;28;45240;-53
2022/04/30 09:24:48;;;;;;;;;19.00;17.25;;;;;16.14;40.04;102171.50;4962507;28;45307;-51
2022/04/30 09:27:15;;;;;;;;;18.75;16.50;;;;;16.22;40.19;102176.69;4962813;28;45336;-53
2022/04/30 09:29:40;;;;;;;;;20.50;15.00;;;;;16.30;39.71;102168.63;4962509;28;46064;-51
2022/04/30 09:32:06;;;;;;;;;16.25;14.50;;;;;16.39;39.85;102176.44;4962431;28;45248;-50
2022/04/30 09:37:41;;;;;;;;;10.75;10.00;;;;;16.58;39.49;102161.97;4967248;28;45235;-53
2022/04/30 09:40:27;;;;;;;;;18.25;17.00;;;;;16.69;39.70;102166.19;4962094;28;46253;-52
2022/04/30 09:42:52;;;;;;;;;13.00;13.00;;;;;16.79;39.29;102166.94;4962267;28;45275;-52
2022/04/30 09:45:35;;;;;;;;;19.50;16.50;;;;;16.88;39.49;102154.38;4962507;28;45265;-52
2022/04/30 09:56:38;;;;;;;;;11.50;11.50;;;;;17.38;39.10;102158.75;4962248;28;45395;-54
2022/04/30 09:59:10;;;;;;;;;16.00;13.75;;;;;17.51;38.83;102157.63;4968941;28;45474;-50
2022/04/30 10:01:37;;;;;;;;;9.25;9.25;;;;;17.61;38.75;102152.09;4965045;28;45335;-50
2022/04/30 10:04:10;;;;;;;;;10.50;10.00;;;;;17.71;38.94;102156.31;4962348;28;45433;-50
2022/04/30 10:06:41;;;;;;;;;10.50;10.50;;;;;17.82;38.50;102161.38;4963460;28;45262;-52
2022/04/30 10:09:08;;;;;;;;;10.00;10.00;;;;;17.91;38.31;102149.69;4972127;28;45476;-51
2022/04/30 10:11:42;;;;;;;;;10.75;10.00;;;;;18.00;38.01;102154.84;4961405;28;45332;-52
2022/04/30 10:14:08;;;;;;;;;13.75;10.75;;;;;18.10;37.66;102156.38;4962137;28;45381;-52
2022/04/30 10:16:34;;;;;;;;;11.50;9.75;;;;;18.22;37.90;102146.34;4962105;28;45389;-52
2022/04/30 10:19:14;;;;;;;;;13.00;10.00;;;;;18.33;37.89;102146.97;4961990;28;45334;-52
2022/04/30 10:21:40;;;;;;;;;9.50;9.50;;;;;18.48;37.75;102137.72;4961755;28;46490;-49
2022/04/30 10:24:06;;;;;;;;;11.75;11.75;;;;;18.70;37.83;102153.13;4961771;28;45236;-52
2022/04/30 10:26:32;;;;;;;;;11.25;8.00;;;;;18.93;37.99;102142.78;4967604;28;45548;-49
2022/04/30 10:29:11;;;;;;;;;10.25;9.00;;;;;19.25;38.23;102133.00;4969263;28;45393;-50
2022/04/30 10:31:44;;;;;;;;;12.00;10.25;;;;;19.62;37.99;102139.03;4961597;28;46213;-53
2022/04/30 10:34:10;;;;;;;;;5.50;5.50;;;;;19.92;37.67;102139.06;4961631;28;45524;-49
2022/04/30 10:36:38;;;;;;;;;11.25;9.00;;;;;20.20;37.74;102138.19;4962654;28;45317;-52
2022/04/30 10:39:06;;;;;;;;;9.25;8.75;;;;;20.45;37.07;102139.13;4961492;28;45427;-52
2022/04/30 10:41:54;;;;;;;;;9.50;8.75;;;;;20.90;37.36;102132.25;4961482;28;46297;-53
2022/04/30 10:44:32;;;;;;;;;12.00;10.50;;;;;21.38;37.75;102122.50;4961270;28;45419;-53
2022/04/30 10:47:09;;;;;;;;;12.25;11.00;;;;;21.95;37.55;102123.91;4960074;28;45470;-53
2022/04/30 10:49:34;;;;;;;;;9.75;9.25;;;;;22.57;37.63;102132.97;4961562;28;45344;-52
2022/04/30 10:52:01;;;;;;;;;11.50;10.25;;;;;23.23;37.44;102117.59;4961158;28;45429;-53
2022/04/30 10:54:29;;;;;;;;;10.50;10.50;;;;;23.88;37.32;102122.63;4950353;28;45280;-49
2022/04/30 10:57:01;;;;;;;;;7.75;7.75;;;;;24.52;37.02;102123.91;4961462;28;45509;-53
2022/04/30 10:59:26;;;;;;;;;13.00;11.50;;;;;25.15;36.92;102123.28;4961198;28;45445;-53
2022/04/30 11:01:52;;;;;;;;;8.50;8.25;;;;;25.76;36.96;102120.88;4961102;28;46368;-51
2022/04/30 11:04:18;;;;;;;;;9.50;9.25;;;;;26.39;35.91;102120.88;4961247;28;45429;-53
2022/04/30 11:06:50;;;;;;;;;10.50;10.50;;;;;27.00;36.52;102118.16;4963579;28;45303;-52
2022/04/30 11:09:15;;;;;;;;;10.25;10.25;;;;;27.61;35.40;102113.41;4970794;28;45338;-54
2022/04/30 11:11:46;;;;;;;;;10.25;9.25;;;;;28.19;35.33;102108.69;4961132;28;46392;-52
2022/04/30 11:14:12;;;;;;;;;8.00;7.00;;;;;28.80;35.08;102108.13;4961189;28;45311;-54
2022/04/30 11:16:44;;;;;;;;;8.00;8.00;;;;;29.43;34.83;102100.06;4961222;28;45234;-53
2022/04/30 11:19:12;;;;;;;;;9.75;8.25;;;;;30.06;34.44;102102.66;4961280;28;45503;-50
2022/04/30 11:21:42;;;;;;;;;10.00;7.50;;;;;30.68;34.49;102102.50;4960357;28;46099;-53
2022/04/30 11:24:09;;;;;;;;;8.00;8.00;;;;;31.35;33.89;102104.38;4960950;28;45335;-53
2022/04/30 11:26:39;;;;;;;;;6.25;6.25;;;;;31.95;33.08;102097.72;4961232;28;45326;-52
2022/04/30 11:29:13;;;;;;;;;13.50;12.50;;;;;32.57;33.08;102098.78;4960887;28;45662;-53
2022/04/30 11:31:42;;;;;;;;;11.00;7.75;;;;;33.14;32.54;102091.03;4960414;28;47213;-53
2022/04/30 11:34:16;;;;;;;;;5.75;5.25;;;;;33.67;32.44;102086.31;4959543;28;45592;-52
2022/04/30 11:36:47;;;;;;;;;7.00;7.00;;;;;34.16;32.00;102084.50;4962486;28;45257;-52
2022/04/30 11:39:14;;;;;;;;;6.50;6.25;;;;;34.69;31.56;102084.97;4962790;28;45236;-54
2022/04/30 11:41:44;;;;;;;;;7.50;7.50;;;;;35.13;30.85;102081.66;4960773;28;45422;-53
2022/04/30 11:44:11;;;;;;;;;7.25;7.25;;;;;35.55;30.42;102088.47;4959518;28;45336;-51
2022/04/30 11:46:37;;;;;;;;;8.50;6.00;;;;;35.91;30.08;102089.38;4960768;28;45251;-56
2022/04/30 11:49:19;;;;;;;;;6.50;5.25;;;;;36.34;30.04;102081.34;4960658;28;45514;-53
2022/04/30 11:51:45;;;;;;;;;7.50;5.75;;;;;36.65;29.92;102077.28;4960422;28;47259;-53
2022/04/30 11:54:13;;;;;;;;;9.00;7.00;;;;;36.97;29.77;102075.75;4960373;28;45414;-53